Relevés horaires Florennes (Belgique)


Relevés horaires à Florennes - Jeudi 01 Avr. 2021
Heure UTC1 Température [°C] Vent [km/h] Hum. [%] Pres.4 [hPa] Visi. [Km] Nébu. [octa] Préc.5 [mm] Cond.
2m. Res. Ros. Dir.2 Vit. Moy. Raf.3
23:00 6.8 5 3.6 N 9.3 -- 14.8 80 1024.2(0.6/3h) 16 -- -- --
22:00 7.8 6.6 5.2 N 7.4 -- 13.0 84 1023.8(1.0/3h) 15 -- -- --
21:00 9.4 8 5.6 N 9.3 -- 14.8 77 1023.3(1.3/3h) 20 -- -- --
20:00 10.8 9.7 7.1 N 9.3 -- 14.8 78 1023(1.3/3h) 18 -- -- --
19:00 11.7 11.1 6.8 N 7.4 -- 14.8 72 1022.2(1.2/3h) 19 -- -- --
18:00 13.7 12.9 7.8 N 11.1 -- 16.7 68 1021.5(0.8/3h) 9 -- -- --
17:00 16.1 15.6 9.9 N 13.0 -- 16.7 67 1020.8(0.4/3h) 4.4 -- -- Du brouillard ou du brouillard glacé (plus correctement designé sous le nom de brume) est observé et la visibilité n'est ni inférieure à 5/8 de mille ni supérieure à 6 milles
16:00 18.0 17.9 9.6 N 13.0 -- 16.7 58 1020.1(-0.2/3h) 6 -- -- --
15:00 19.4 19.4 8.8 N 7.4 -- 13.0 50 1019.8(-0.3/3h) 8 0/8 -- --
14:00 19.5 19.5 7.6 N 7.4 -- 11.1 46 1020(-0.4/3h) 8 0/8 -- --
13:00 20.2 20.2 9.1 N 7.4 -- 11.1 49 1020.1(-0.1/3h) 10 0/8 -- --
12:00 19.5 19.5 5.7 N 3.7 -- 9.3 40 1020.2(0.0/3h) 15 6/8 -- --
11:00 19.0 19.0 6.3 N 5.6 -- 9.3 43 1020.6(0.4/3h) 15 6/8 -- --
10:00 18.7 18.7 6.2 N 5.6 -- 7.4 44 1020.5(0.4/3h) 15 6/8 -- --
09:00 17.8 17.8 6.6 NNO 1.9 -- 1.9 48 1020.6(0.5/3h) 20 6/8 -- --
08:00 15.3 15.3 9.8 NNO 1.9 -- 0.0 70 1020.6(0.6/3h) 20 6/8 -- --
07:00 12.6 12.6 6.9 NNO 1.9 -- 0.0 68 1020.7(0.8/3h) 20 6/8 -- --
06:00 11.9 11.9 3.3 NNO 1.9 -- 1.9 56 1020.7(0.6/3h) 20 6/8 -- --
05:00 10.6 10.6 4.3 NNO 1.9 -- 1.9 65 1020.5(0.1/3h) 20 6/8 -- --
04:00 11.1 11.1 4.6 NNO 1.9 -- 1.9 64 1020.1(-0.3/3h) 20 3/8 -- --
03:00 11.5 11.5 4.8 NNO 1.9 -- 1.9 63 1020.1(-0.7/3h) 20 3/8 -- --
02:00 10.7 10.7 5.1 NNO 1.9 -- 1.9 68 1020.2(-0.9/3h) 20 3/8 -- --
01:00 13.8 13.8 4.8 NNO 1.9 -- 1.9 55 1020.1(-0.4/3h) 17 -- -- --
00:00 13.5 13.5 5.0 NNO 1.9 -- 5.6 56 1020.7(0.2/3h) 19 -- -- --

1 Coordinated Universal Time. Actuellement il est 18:00 locale et 17:00 UTC.

2 Le vent souffle depuis la direction indiquée vers la direction oposée.

3 Les rafales max. sont disponible 40 min après l'heure du relevé.

4 Pour les stations d'altitude (plus de 600m) le géopotentiel du niveau le plus proche de la pression obligatoire est indiqué.

5 Les stations disposant d'un diffuseur peuvent indiquer "trace". Cela signifie que des précipitations ont touchés le sol mais que la quantité est inférieure à 0.1 mm.

Récapitulatif de la journée
Température [°C] Vent [km/h] Ensoleillement4 [h] Precipitations totale5 [mm] Pression [Hpa]
Min1 Max.2 Moy.3 Max. Min Max.
10.0 20.2 0 16.7 0 h 0 min 0 1019.8 1024.2

1 Température minimale relevée entre 18:00 UTC la veille et 18:00 UTC le jour donné.

2 Température maximale relevée entre 06:00 UTC le jour donné et 06:00 UTC le lendemain.

3 Vent moyen de la journée basé sur les relevés horaires.

4 Ensoleillement en heures relevé entre 06:00 UTC la veille et 06:00 UTC le jour donné.

5 Précipitations totales tombées entre 06:00 UTC la jour donné et 06:00 UTC le lendemain.

Graphiques horaires